createdAt,value
2019-02-06T00:00:26.349Z,1.81
2019-02-06T00:05:15.920Z,1.88
2019-02-06T00:10:15.966Z,1.88
2019-02-06T00:15:15.917Z,1.88
2019-02-06T00:20:15.921Z,1.88
2019-02-06T00:25:15.952Z,1.81
2019-02-06T00:30:15.952Z,1.81
2019-02-06T00:35:25.446Z,1.81
2019-02-06T00:40:15.989Z,1.81
2019-02-06T00:45:14.582Z,1.81
2019-02-06T00:50:13.875Z,1.75
2019-02-06T21:35:13.546Z,0.44
2019-02-06T21:40:13.507Z,0.44
2019-02-06T21:45:13.518Z,0.44
2019-02-06T21:50:13.513Z,0.38
2019-02-06T21:55:13.544Z,0.38
2019-02-06T22:00:13.540Z,0.38
2019-02-06T22:05:14.362Z,0.38
2019-02-06T22:10:13.552Z,0.44
2019-02-06T22:15:13.494Z,0.5
2019-02-06T22:20:13.547Z,0.5
2019-02-06T22:25:13.571Z,0.63
2019-02-06T22:30:13.579Z,0.63
2019-02-06T22:35:13.536Z,0.69
2019-02-06T22:40:13.557Z,0.69
2019-02-06T22:45:13.543Z,0.63
2019-02-06T22:50:13.544Z,0.56
2019-02-06T22:55:13.616Z,0.5
2019-02-06T23:00:23.865Z,0.44
2019-02-06T23:05:13.621Z,0.5
2019-02-06T23:10:13.559Z,0.5
2019-02-06T23:15:13.557Z,0.44
2019-02-06T23:20:13.556Z,0.44
2019-02-06T23:25:13.577Z,0.38
2019-02-06T23:30:13.587Z,0.31
2019-02-06T23:35:13.625Z,0.25
2019-02-06T23:40:13.579Z,0.31
2019-02-06T23:45:13.584Z,0.31
2019-02-06T23:50:13.627Z,0.25
2019-02-06T23:55:13.622Z,0.25
